sim
Sign-in with your pilot id or email,
or register
Callsign
Passwort

Schedule Details

Flight Number: DLH1679
Departure: Budapest Ferenc Liszt International Airport (LHBP) at 15:30
Arrival: Munich Airport (EDDM) at 16:45
Route: Lufthansa Passenger Schedule. Enter filed route here before submitting Pirep.

Weather Information
Getting current METAR information for LHBP 190230Z 27004KT 250V310 CAVOK 07/03 Q1025 NOSIG
Getting current METAR information for EDDM 190250Z 07003KT CAVOK 05/04 Q1020 NOSIG

Schedule Frequency

Route Map